createdAt,value
2019-02-28T00:00:25.268Z,5.50
2019-02-28T00:02:53.860Z,5.50
2019-02-28T00:05:21.067Z,5.50
2019-02-28T00:07:49.623Z,5.30
2019-02-28T00:10:16.940Z,5.30
2019-02-28T00:12:45.276Z,5.30
2019-02-28T00:15:12.754Z,5.20
2019-02-28T00:17:42.489Z,5.20
2019-02-28T00:20:08.584Z,5.20
2019-02-28T00:22:35.587Z,5.30
2019-02-28T00:25:04.235Z,5.30
2019-02-28T00:27:32.024Z,5.40
2019-02-28T00:29:59.007Z,5.30
2019-02-28T00:32:25.931Z,5.30
2019-02-28T00:34:53.945Z,5.30
2019-02-28T00:37:20.952Z,5.30
2019-02-28T00:39:47.947Z,5.20
2019-02-28T00:42:17.690Z,5.20
2019-02-28T00:44:44.278Z,5.20
2019-02-28T00:47:12.416Z,5.20
2019-02-28T00:49:39.447Z,5.00
2019-02-28T00:52:06.441Z,5.00
2019-02-28T00:54:33.513Z,4.90
2019-02-28T00:57:00.533Z,4.90
2019-02-28T00:59:27.455Z,5.00
2019-02-28T01:01:54.364Z,4.80
2019-02-28T01:04:21.408Z,4.80
2019-02-28T01:06:50.217Z,4.80
2019-02-28T01:09:18.333Z,4.80
2019-02-28T01:11:45.647Z,4.90
2019-02-28T01:14:12.737Z,5.00
2019-02-28T01:16:41.419Z,4.80
2019-02-28T01:19:09.093Z,4.90
2019-02-28T01:21:37.035Z,4.80
2019-02-28T01:24:04.108Z,4.80
2019-02-28T01:26:32.870Z,4.90
2019-02-28T01:29:02.074Z,4.70
2019-02-28T01:31:29.706Z,4.70
2019-02-28T01:33:58.776Z,4.70
2019-02-28T01:36:25.559Z,4.60
2019-02-28T01:38:57.442Z,4.60
2019-02-28T01:41:21.641Z,4.60
2019-02-28T01:43:48.535Z,4.70
2019-02-28T01:46:17.222Z,4.70
2019-02-28T01:48:44.382Z,4.70
2019-02-28T01:51:11.395Z,4.70
2019-02-28T01:53:38.399Z,4.60
2019-02-28T01:56:06.755Z,4.50
2019-02-28T01:58:33.895Z,4.60
2019-02-28T02:01:01.206Z,4.50
2019-02-28T02:03:28.228Z,4.60
2019-02-28T02:05:55.176Z,4.60
2019-02-28T02:08:22.088Z,4.60
2019-02-28T02:10:54.981Z,4.50
2019-02-28T02:13:18.677Z,4.50
2019-02-28T02:15:45.680Z,4.50
2019-02-28T02:18:12.618Z,4.40
2019-02-28T02:20:39.686Z,4.20
2019-02-28T02:23:06.670Z,4.30
2019-02-28T02:25:37.274Z,4.40
2019-02-28T02:28:02.530Z,4.50
2019-02-28T02:30:29.577Z,4.40
2019-02-28T02:32:56.639Z,4.30
2019-02-28T02:35:24.674Z,4.20
2019-02-28T02:37:51.809Z,4.30
2019-02-28T02:40:22.932Z,4.30
2019-02-28T02:42:49.703Z,4.40
2019-02-28T02:45:16.466Z,4.40
2019-02-28T02:47:43.621Z,4.30
2019-02-28T02:50:12.142Z,4.30
2019-02-28T02:52:39.151Z,4.30
2019-02-28T02:55:06.566Z,4.10
2019-02-28T02:57:33.562Z,4.10
2019-02-28T03:00:01.646Z,4.10
2019-02-28T03:02:33.089Z,4.00
2019-02-28T03:04:58.546Z,4.10
2019-02-28T03:07:27.472Z,4.10
2019-02-28T03:09:54.555Z,4.00
2019-02-28T03:12:21.469Z,4.00
2019-02-28T03:14:50.369Z,3.90
2019-02-28T03:17:17.349Z,3.90
2019-02-28T03:19:44.337Z,3.90
2019-02-28T03:22:11.227Z,3.80
2019-02-28T03:24:38.288Z,3.90
2019-02-28T03:27:07.107Z,3.90
2019-02-28T03:29:34.162Z,3.90
2019-02-28T03:32:01.064Z,3.80
2019-02-28T03:34:28.150Z,3.90
2019-02-28T03:36:57.163Z,3.80
2019-02-28T03:39:25.873Z,3.70
2019-02-28T03:41:54.070Z,3.60
2019-02-28T03:44:21.883Z,3.70
2019-02-28T03:46:49.026Z,3.80
2019-02-28T03:49:15.964Z,3.90
2019-02-28T03:51:42.998Z,3.90
2019-02-28T03:54:10.027Z,3.80
2019-02-28T03:56:38.848Z,3.90
2019-02-28T03:59:05.921Z,3.80
2019-02-28T04:01:33.050Z,3.80
2019-02-28T04:04:01.759Z,3.70
2019-02-28T04:06:28.774Z,3.80
2019-02-28T04:08:55.927Z,3.70
2019-02-28T04:11:30.778Z,3.70
2019-02-28T04:13:56.046Z,3.70
2019-02-28T04:16:21.421Z,3.80
2019-02-28T04:18:48.524Z,3.70
2019-02-28T04:21:15.623Z,3.60
2019-02-28T04:23:42.601Z,3.70
2019-02-28T04:26:09.577Z,3.70
2019-02-28T04:28:36.584Z,3.70
2019-02-28T04:31:03.620Z,3.60
2019-02-28T04:33:37.521Z,3.50
2019-02-28T04:36:01.647Z,3.60
2019-02-28T04:38:28.785Z,3.60
2019-02-28T04:40:58.879Z,3.50
2019-02-28T04:43:25.680Z,3.50
2019-02-28T04:45:53.817Z,3.60
2019-02-28T04:48:20.803Z,3.60
2019-02-28T04:50:47.847Z,3.50
2019-02-28T04:53:18.878Z,3.30
2019-02-28T04:55:45.412Z,3.30
2019-02-28T04:58:12.423Z,3.40
2019-02-28T05:00:39.360Z,3.40
2019-02-28T05:03:06.352Z,3.40
2019-02-28T05:05:33.380Z,3.40
2019-02-28T05:08:05.765Z,3.40
2019-02-28T05:10:32.538Z,3.40
2019-02-28T05:12:59.604Z,3.40
2019-02-28T05:15:28.305Z,3.50
2019-02-28T05:17:55.868Z,3.30
2019-02-28T05:20:23.925Z,3.30
2019-02-28T05:22:50.887Z,3.30
2019-02-28T05:25:18.780Z,3.40
2019-02-28T05:27:45.945Z,3.60
2019-02-28T05:30:18.150Z,3.60
2019-02-28T05:32:41.710Z,3.60
2019-02-28T05:35:08.940Z,3.70
2019-02-28T05:37:37.679Z,3.70
2019-02-28T05:40:06.099Z,3.60
2019-02-28T05:42:33.804Z,3.70
2019-02-28T05:45:02.977Z,3.70
2019-02-28T05:47:32.469Z,3.60
2019-02-28T05:50:02.664Z,3.70
2019-02-28T05:52:30.559Z,3.70
2019-02-28T05:54:59.553Z,3.70
2019-02-28T05:57:28.805Z,3.50
2019-02-28T06:00:01.433Z,3.60
2019-02-28T06:02:27.541Z,3.60
2019-02-28T06:04:55.208Z,3.70
2019-02-28T06:07:22.757Z,3.60
2019-02-28T06:09:50.230Z,3.60
2019-02-28T06:12:19.947Z,3.50
2019-02-28T06:14:47.603Z,3.30
2019-02-28T06:17:17.382Z,3.40
2019-02-28T06:19:44.326Z,3.30
2019-02-28T06:22:11.410Z,3.20
2019-02-28T06:24:38.460Z,3.30
2019-02-28T06:27:06.590Z,3.50
2019-02-28T06:29:36.780Z,3.60
2019-02-28T06:32:03.213Z,3.60
2019-02-28T06:34:30.364Z,3.60
2019-02-28T06:37:00.418Z,3.70
2019-02-28T06:39:26.850Z,3.60
2019-02-28T06:41:54.646Z,3.60
2019-02-28T06:44:24.180Z,3.70
2019-02-28T06:46:50.518Z,3.70
2019-02-28T06:49:17.569Z,3.70
2019-02-28T06:51:44.607Z,3.70
2019-02-28T06:54:11.686Z,3.70
2019-02-28T06:56:38.629Z,3.80
2019-02-28T06:59:05.747Z,3.70
2019-02-28T07:01:32.740Z,3.80
2019-02-28T07:03:59.718Z,3.90
2019-02-28T07:06:26.788Z,3.90
2019-02-28T07:08:53.866Z,3.90
2019-02-28T07:11:20.913Z,4.00
2019-02-28T07:13:47.969Z,4.00
2019-02-28T07:16:15.036Z,4.00
2019-02-28T07:18:42.161Z,4.10
2019-02-28T07:21:09.193Z,4.20
2019-02-28T07:23:36.233Z,4.30
2019-02-28T07:26:03.314Z,4.40
2019-02-28T07:28:36.039Z,4.40
2019-02-28T07:30:59.269Z,4.50
2019-02-28T07:33:26.270Z,4.60
2019-02-28T07:35:53.545Z,4.60
2019-02-28T07:38:20.574Z,4.70
2019-02-28T07:40:49.587Z,4.80
2019-02-28T07:43:16.608Z,4.90
2019-02-28T07:45:43.674Z,5.00
2019-02-28T07:48:10.597Z,5.10
2019-02-28T07:50:37.631Z,5.20
2019-02-28T07:53:05.601Z,5.30
2019-02-28T07:55:33.388Z,5.40
2019-02-28T07:58:00.399Z,5.60
2019-02-28T08:00:27.368Z,5.60
2019-02-28T08:02:54.360Z,5.70
2019-02-28T08:05:21.297Z,5.80
2019-02-28T08:07:52.076Z,5.90
2019-02-28T08:10:18.279Z,6.00
2019-02-28T08:12:45.361Z,6.10
2019-02-28T08:15:15.005Z,6.40
2019-02-28T08:17:43.929Z,6.50
2019-02-28T08:20:10.853Z,6.70
2019-02-28T08:22:37.814Z,6.90
2019-02-28T08:25:07.843Z,7.10
2019-02-28T08:27:34.638Z,7.20
2019-02-28T08:30:01.607Z,7.30
2019-02-28T08:32:28.629Z,7.40
2019-02-28T08:34:58.771Z,7.50
2019-02-28T08:37:24.316Z,7.60
2019-02-28T08:39:51.217Z,7.80
2019-02-28T08:42:18.144Z,7.80
2019-02-28T08:44:45.220Z,7.90
2019-02-28T08:47:12.180Z,8.00
2019-02-28T08:49:44.667Z,8.10
2019-02-28T08:52:07.980Z,8.20
2019-02-28T08:54:34.904Z,8.40
2019-02-28T08:57:01.835Z,8.50
2019-02-28T08:59:28.818Z,8.60
2019-02-28T09:01:55.742Z,8.80
2019-02-28T09:04:22.941Z,8.90
2019-02-28T09:06:49.916Z,9.00
2019-02-28T09:09:16.784Z,9.10
2019-02-28T09:11:44.189Z,9.20
2019-02-28T09:14:11.204Z,9.30
2019-02-28T09:16:39.679Z,9.40
2019-02-28T09:19:07.074Z,9.50
2019-02-28T09:21:33.989Z,9.50
2019-02-28T09:24:00.968Z,9.60
2019-02-28T09:26:28.219Z,9.70
2019-02-28T09:28:56.768Z,9.80
2019-02-28T09:31:23.668Z,9.80
2019-02-28T09:33:50.537Z,9.90
2019-02-28T09:36:20.911Z,10.00
2019-02-28T09:38:46.262Z,10.10
2019-02-28T09:41:13.292Z,10.20
2019-02-28T09:43:40.162Z,10.30
2019-02-28T09:46:09.028Z,10.40
2019-02-28T09:48:37.294Z,10.50
2019-02-28T09:51:04.724Z,10.60
2019-02-28T09:53:31.775Z,10.70
2019-02-28T09:55:58.702Z,10.80
2019-02-28T09:58:26.180Z,10.90
2019-02-28T10:00:54.413Z,11.10
2019-02-28T10:03:21.497Z,11.20
2019-02-28T10:05:48.360Z,11.40
2019-02-28T10:08:15.273Z,11.40
2019-02-28T10:10:42.209Z,11.50
2019-02-28T10:13:09.126Z,11.60
2019-02-28T10:15:38.692Z,11.60
2019-02-28T10:18:05.316Z,11.60
2019-02-28T10:20:32.343Z,11.60
2019-02-28T10:22:59.237Z,11.60
2019-02-28T10:25:26.268Z,11.70
2019-02-28T10:27:54.587Z,11.80
2019-02-28T10:30:31.333Z,12.10
2019-02-28T10:32:50.887Z,12.20
2019-02-28T10:35:18.549Z,12.40
2019-02-28T10:37:46.037Z,12.40
2019-02-28T10:40:18.729Z,12.40
2019-02-28T10:42:50.682Z,12.50
2019-02-28T10:45:18.100Z,12.50
2019-02-28T10:47:45.062Z,12.50
2019-02-28T10:50:16.932Z,12.50
2019-02-28T10:52:43.866Z,12.50
2019-02-28T10:55:11.471Z,12.50
2019-02-28T10:57:40.615Z,12.50
2019-02-28T11:00:14.512Z,12.50
2019-02-28T11:02:41.813Z,12.60
2019-02-28T11:05:15.311Z,12.60
2019-02-28T11:07:42.499Z,12.70
2019-02-28T11:10:09.481Z,12.70
2019-02-28T11:12:37.733Z,12.70
2019-02-28T11:15:05.607Z,12.70
2019-02-28T11:17:34.167Z,12.70
2019-02-28T11:20:01.309Z,12.70
2019-02-28T11:22:31.579Z,12.80
2019-02-28T11:25:00.773Z,12.80
2019-02-28T11:27:27.591Z,12.90
2019-02-28T11:29:55.655Z,12.90
2019-02-28T11:32:22.588Z,13.00
2019-02-28T11:34:49.660Z,13.10
2019-02-28T11:37:16.525Z,13.20
2019-02-28T11:39:43.492Z,13.30
2019-02-28T11:42:10.431Z,13.40
2019-02-28T11:44:37.469Z,13.50
2019-02-28T11:47:04.486Z,13.60
2019-02-28T11:49:31.491Z,13.80
2019-02-28T11:51:58.508Z,13.90
2019-02-28T11:54:25.642Z,14.10
2019-02-28T11:56:52.586Z,14.20
2019-02-28T11:59:19.472Z,14.40
2019-02-28T12:01:48.366Z,14.50
2019-02-28T12:04:15.236Z,14.40
2019-02-28T12:06:42.144Z,14.40
2019-02-28T12:09:09.063Z,14.30
2019-02-28T12:11:36.474Z,14.20
2019-02-28T12:14:06.207Z,14.20
2019-02-28T12:16:32.987Z,14.10
2019-02-28T12:19:00.078Z,14.10
2019-02-28T12:21:27.046Z,14.00
2019-02-28T12:23:54.301Z,14.10
2019-02-28T12:26:22.930Z,14.00
2019-02-28T12:28:49.928Z,14.10
2019-02-28T12:31:17.030Z,14.10
2019-02-28T12:33:44.122Z,14.10
2019-02-28T12:36:11.294Z,14.10
2019-02-28T12:38:39.868Z,14.20
2019-02-28T12:41:06.768Z,14.20
2019-02-28T12:43:33.703Z,14.30
2019-02-28T12:46:00.834Z,14.50
2019-02-28T12:48:27.814Z,14.60
2019-02-28T12:50:54.781Z,14.60
2019-02-28T12:53:25.263Z,14.60
2019-02-28T12:55:50.846Z,14.70
2019-02-28T12:58:17.834Z,14.80
2019-02-28T13:00:45.095Z,15.00
2019-02-28T13:03:12.199Z,15.10
2019-02-28T13:05:39.219Z,15.30
2019-02-28T13:08:06.998Z,15.30
2019-02-28T13:10:34.284Z,15.30
2019-02-28T13:13:06.431Z,15.40
2019-02-28T13:15:29.968Z,15.50
2019-02-28T13:18:00.113Z,15.50
2019-02-28T13:20:32.413Z,15.50
2019-02-28T13:22:59.361Z,15.60
2019-02-28T13:25:25.752Z,15.60
2019-02-28T13:27:52.759Z,15.70
2019-02-28T13:30:21.120Z,15.70
2019-02-28T13:32:48.060Z,15.80
2019-02-28T13:35:17.289Z,15.90
2019-02-28T13:37:44.861Z,15.90
2019-02-28T13:40:12.175Z,15.90
2019-02-28T13:42:40.895Z,16.10
2019-02-28T13:45:14.741Z,16.40
2019-02-28T13:47:41.977Z,16.80
2019-02-28T13:50:10.399Z,16.90
2019-02-28T13:52:37.339Z,16.70
2019-02-28T13:55:06.197Z,16.60
2019-02-28T13:57:33.403Z,16.50
2019-02-28T14:00:00.475Z,16.50
2019-02-28T14:02:29.766Z,16.50
2019-02-28T14:04:58.753Z,16.50
2019-02-28T14:07:29.909Z,16.30
2019-02-28T14:09:58.167Z,16.10
2019-02-28T14:12:24.988Z,16.00
2019-02-28T14:14:52.287Z,16.00
2019-02-28T14:17:19.704Z,16.00
2019-02-28T14:19:46.966Z,16.00
2019-02-28T14:22:14.678Z,16.10
2019-02-28T14:24:42.126Z,16.10
2019-02-28T14:27:10.392Z,16.20
2019-02-28T14:29:38.335Z,16.30
2019-02-28T14:32:07.552Z,16.50
2019-02-28T14:34:35.977Z,16.60
2019-02-28T14:37:03.785Z,16.70
2019-02-28T14:39:31.141Z,16.80
2019-02-28T14:41:58.473Z,16.80
2019-02-28T14:44:27.919Z,16.80
2019-02-28T14:46:54.782Z,16.80
2019-02-28T14:49:21.768Z,16.70
2019-02-28T14:51:48.699Z,16.70
2019-02-28T14:54:15.609Z,16.70
2019-02-28T14:56:43.159Z,16.60
2019-02-28T14:59:10.308Z,16.60
2019-02-28T15:01:37.454Z,16.60
2019-02-28T15:04:08.509Z,16.50
2019-02-28T15:06:35.986Z,16.40
2019-02-28T15:09:10.541Z,16.30
2019-02-28T15:11:37.455Z,16.20
2019-02-28T15:14:05.646Z,16.10
2019-02-28T15:16:33.252Z,16.00
2019-02-28T15:19:00.169Z,16.00
2019-02-28T15:21:27.185Z,15.90
2019-02-28T15:23:54.193Z,16.00
2019-02-28T15:26:21.137Z,16.00
2019-02-28T15:28:48.761Z,16.00
2019-02-28T15:31:16.425Z,16.00
2019-02-28T15:33:43.795Z,16.00
2019-02-28T15:36:11.182Z,15.90
2019-02-28T15:38:38.613Z,15.90
2019-02-28T15:41:05.904Z,15.80
2019-02-28T15:43:32.992Z,15.80
2019-02-28T15:46:00.036Z,15.80
2019-02-28T15:48:27.050Z,15.90
2019-02-28T15:50:54.254Z,15.90
2019-02-28T15:53:21.248Z,15.90
2019-02-28T15:55:48.419Z,15.90
2019-02-28T15:58:16.699Z,15.80
2019-02-28T16:00:44.085Z,15.80
2019-02-28T16:03:13.500Z,15.80
2019-02-28T16:05:44.074Z,15.80
2019-02-28T16:08:10.370Z,15.90
2019-02-28T16:10:37.620Z,15.80
2019-02-28T16:13:05.801Z,15.70
2019-02-28T16:15:32.829Z,15.60
2019-02-28T16:17:59.986Z,15.60
2019-02-28T16:20:28.525Z,15.50
2019-02-28T16:22:56.121Z,15.50
2019-02-28T16:25:28.105Z,15.50
2019-02-28T16:27:55.061Z,15.40
2019-02-28T16:30:22.118Z,15.30
2019-02-28T16:32:50.152Z,15.30
2019-02-28T16:35:17.229Z,15.30
2019-02-28T16:37:44.243Z,15.20
2019-02-28T16:40:13.109Z,15.10
2019-02-28T16:42:40.134Z,15.00
2019-02-28T16:45:11.441Z,14.90
2019-02-28T16:47:38.370Z,14.90
2019-02-28T16:50:05.842Z,14.90
2019-02-28T16:52:32.871Z,14.80
2019-02-28T16:54:59.826Z,14.70
2019-02-28T16:57:26.802Z,14.70
2019-02-28T16:59:53.922Z,14.60
2019-02-28T17:02:20.850Z,14.60
2019-02-28T17:04:48.632Z,14.50
2019-02-28T17:07:16.756Z,14.40
2019-02-28T17:09:43.792Z,14.30
2019-02-28T17:12:15.652Z,14.20
2019-02-28T17:14:48.072Z,14.10
2019-02-28T17:17:14.027Z,14.00
2019-02-28T17:19:41.422Z,14.00
2019-02-28T17:22:08.774Z,14.00
2019-02-28T17:24:35.744Z,14.00
2019-02-28T17:27:06.341Z,14.00
2019-02-28T17:29:48.038Z,13.90
2019-02-28T17:32:14.474Z,14.00
2019-02-28T17:34:41.588Z,14.00
2019-02-28T17:37:08.593Z,13.90
2019-02-28T17:39:35.694Z,14.00
2019-02-28T17:42:08.617Z,14.00
2019-02-28T17:45:00.673Z,14.00
2019-02-28T17:48:19.063Z,14.00
2019-02-28T17:51:18.845Z,13.90
2019-02-28T17:54:24.831Z,13.90
2019-02-28T17:57:37.303Z,13.80
2019-02-28T18:00:33.960Z,13.80
2019-02-28T18:03:50.150Z,13.70
2019-02-28T18:06:48.563Z,13.80
2019-02-28T18:09:28.106Z,13.70
2019-02-28T18:12:29.012Z,13.70
2019-02-28T18:15:33.556Z,13.70
2019-02-28T18:18:11.009Z,13.60
2019-02-28T18:21:17.461Z,13.60
2019-02-28T18:24:07.847Z,13.60
2019-02-28T18:27:17.338Z,13.50
2019-02-28T18:30:35.142Z,13.60
2019-02-28T18:33:03.207Z,13.50
2019-02-28T18:35:32.568Z,13.40
2019-02-28T18:38:00.822Z,13.40
2019-02-28T18:40:28.215Z,13.40
2019-02-28T18:42:55.267Z,13.40
2019-02-28T18:45:22.534Z,13.40
2019-02-28T18:47:49.565Z,13.40
2019-02-28T18:50:16.767Z,13.40
2019-02-28T18:52:43.782Z,13.40
2019-02-28T18:55:10.833Z,13.30
2019-02-28T18:57:37.868Z,13.30
2019-02-28T19:00:06.245Z,13.20
2019-02-28T19:02:33.282Z,13.20
2019-02-28T19:05:00.294Z,13.10
2019-02-28T19:07:27.862Z,13.10
2019-02-28T19:09:55.872Z,13.00
2019-02-28T19:12:23.014Z,13.00
2019-02-28T19:14:50.256Z,13.10
2019-02-28T19:17:17.366Z,13.00
2019-02-28T19:19:44.634Z,13.00
2019-02-28T19:22:11.656Z,13.00
2019-02-28T19:24:38.710Z,13.00
2019-02-28T19:27:05.890Z,13.00
2019-02-28T19:29:32.869Z,13.00
2019-02-28T19:31:59.801Z,13.00
2019-02-28T19:34:26.882Z,12.90
2019-02-28T19:36:54.177Z,12.90
2019-02-28T19:39:21.193Z,12.90
2019-02-28T19:41:48.198Z,12.90
2019-02-28T19:44:15.610Z,12.80
2019-02-28T19:46:42.523Z,12.80
2019-02-28T19:49:17.260Z,12.80
2019-02-28T19:51:44.382Z,12.80
2019-02-28T19:54:11.278Z,12.80
2019-02-28T19:56:38.486Z,12.80
2019-02-28T19:59:05.529Z,12.70
2019-02-28T20:01:32.629Z,12.80
2019-02-28T20:03:59.521Z,12.70
2019-02-28T20:06:26.416Z,12.70
2019-02-28T20:08:53.443Z,12.70
2019-02-28T20:11:20.664Z,12.70
2019-02-28T20:13:47.827Z,12.70
2019-02-28T20:16:16.206Z,12.60
2019-02-28T20:18:43.342Z,12.60
2019-02-28T20:21:10.561Z,12.60
2019-02-28T20:23:37.595Z,12.60
2019-02-28T20:26:04.530Z,12.50
2019-02-28T20:28:31.488Z,12.50
2019-02-28T20:30:58.717Z,12.60
2019-02-28T20:33:25.645Z,12.60
2019-02-28T20:35:52.585Z,12.50
2019-02-28T20:38:19.960Z,12.50
2019-02-28T20:40:47.302Z,12.40
2019-02-28T20:43:14.304Z,12.50
2019-02-28T20:45:41.501Z,12.50
2019-02-28T20:48:08.839Z,12.40
2019-02-28T20:50:38.366Z,12.40
2019-02-28T20:53:05.481Z,12.30
2019-02-28T20:55:32.917Z,12.30
2019-02-28T20:58:03.250Z,12.30
2019-02-28T21:00:30.165Z,12.30
2019-02-28T21:02:57.160Z,12.30
2019-02-28T21:05:24.267Z,12.30
2019-02-28T21:07:51.497Z,12.30
2019-02-28T21:10:21.772Z,12.30
2019-02-28T21:13:02.725Z,12.30
2019-02-28T21:15:29.752Z,12.30
2019-02-28T21:17:59.428Z,12.30
2019-02-28T21:20:26.772Z,12.30
2019-02-28T21:22:53.781Z,12.10
2019-02-28T21:25:20.708Z,12.10
2019-02-28T21:27:47.965Z,12.00
2019-02-28T21:30:17.132Z,12.00
2019-02-28T21:32:44.437Z,12.00
2019-02-28T21:35:14.753Z,12.10
2019-02-28T21:37:41.968Z,12.10
2019-02-28T21:40:09.867Z,12.10
2019-02-28T21:42:36.890Z,12.10
2019-02-28T21:45:05.226Z,12.10
2019-02-28T21:47:32.632Z,12.10
2019-02-28T21:49:59.860Z,12.00
2019-02-28T21:52:26.845Z,12.10
2019-02-28T21:54:53.811Z,12.10
2019-02-28T21:57:22.816Z,12.00
2019-02-28T21:59:49.972Z,12.00
2019-02-28T22:02:18.688Z,12.00
2019-02-28T22:04:45.800Z,12.00
2019-02-28T22:07:12.857Z,12.00
2019-02-28T22:09:42.304Z,12.00
2019-02-28T22:12:09.365Z,12.00
2019-02-28T22:14:36.312Z,12.00
2019-02-28T22:17:03.248Z,11.90
2019-02-28T22:19:30.217Z,11.90
2019-02-28T22:21:57.124Z,11.80
2019-02-28T22:24:24.009Z,11.80
2019-02-28T22:26:50.976Z,11.80
2019-02-28T22:29:17.928Z,11.80
2019-02-28T22:31:46.857Z,11.80
2019-02-28T22:34:15.751Z,11.80
2019-02-28T22:36:43.144Z,11.80
2019-02-28T22:39:10.307Z,11.80
2019-02-28T22:41:37.257Z,11.80
2019-02-28T22:44:04.265Z,11.70
2019-02-28T22:46:31.831Z,11.70
2019-02-28T22:48:58.860Z,11.70
2019-02-28T22:51:27.875Z,11.70
2019-02-28T22:53:54.967Z,11.70
2019-02-28T22:56:22.009Z,11.80
2019-02-28T22:58:48.913Z,11.70
2019-02-28T23:01:18.936Z,11.70
2019-02-28T23:03:45.857Z,11.70
2019-02-28T23:06:12.807Z,11.70
2019-02-28T23:08:39.705Z,11.70
2019-02-28T23:11:06.708Z,11.70
2019-02-28T23:13:33.653Z,11.70
2019-02-28T23:16:00.654Z,11.70
2019-02-28T23:18:27.695Z,11.70
2019-02-28T23:20:54.687Z,11.70
2019-02-28T23:23:21.728Z,11.70
2019-02-28T23:25:48.679Z,11.70
2019-02-28T23:28:32.924Z,11.70
2019-02-28T23:31:37.839Z,11.70
2019-02-28T23:34:10.301Z,11.60
2019-02-28T23:36:37.232Z,11.60
2019-02-28T23:39:05.844Z,11.60
2019-02-28T23:41:32.807Z,11.60
2019-02-28T23:43:59.875Z,11.50
2019-02-28T23:46:27.580Z,11.50
2019-02-28T23:48:54.590Z,11.50
2019-02-28T23:51:21.540Z,11.50
2019-02-28T23:53:48.512Z,11.40
2019-02-28T23:56:15.517Z,11.40
2019-02-28T23:58:42.457Z,11.40
